Time;durP1;ratioP1;P1;durP2;ratioP2;P2;SDS_P1;SDS_P2;PMS_P1;PMS_P2;Temp;Humidity;BMP_temperature;BMP_pressure;BME280_temperature;BME280_humidity;BME280_pressure;Samples;Min_cycle;Max_cycle;Signal;HPM_P1;HPM_P2
2022/01/26 00:00:06;;;;;;;15.20;10.03;;;;;;;-5.80;49.03;95711.44;5034898;28;20233;-62
2022/01/26 00:07:51;;;;;;;14.27;10.80;;;;;;;-5.84;49.75;95709.00;5027653;28;20277;-63
2022/01/26 00:10:17;;;;;;;15.70;9.97;;;;;;;-5.78;49.50;95703.72;5057226;28;20240;-63
2022/01/26 00:12:42;;;;;;;15.50;9.97;;;;;;;-5.86;49.58;95703.06;5063411;28;20216;-62
2022/01/26 00:15:09;;;;;;;14.47;10.27;;;;;;;-5.80;48.91;95703.78;5123489;27;20246;-63
2022/01/26 00:17:35;;;;;;;15.23;9.60;;;;;;;-5.76;49.28;95702.81;5141792;27;20293;-62
2022/01/26 00:20:11;;;;;;;15.40;9.90;;;;;;;-5.87;49.26;95701.38;5140444;27;20226;-62
2022/01/26 00:38:39;;;;;;;46.60;28.63;;;;;;;-6.45;52.82;95695.91;5139907;27;20217;-63
2022/01/26 00:41:11;;;;;;;50.13;31.27;;;;;;;-6.62;53.42;95692.88;5139370;27;20223;-61
2022/01/26 00:43:42;;;;;;;51.97;30.83;;;;;;;-6.90;54.16;95693.41;5142947;27;20222;-65
2022/01/26 00:46:08;;;;;;;53.17;33.07;;;;;;;-7.21;55.46;95678.69;5139978;27;20230;-64
2022/01/26 00:48:36;;;;;;;52.47;32.50;;;;;;;-7.08;55.63;95701.44;5140879;27;20264;-62
2022/01/26 00:51:05;;;;;;;62.20;36.00;;;;;;;-7.18;55.97;95699.06;5139933;27;20202;-62
2022/01/26 00:53:35;;;;;;;60.73;36.83;;;;;;;-7.21;55.76;95704.25;5139889;27;20226;-64
2022/01/26 00:56:03;;;;;;;61.27;36.77;;;;;;;-7.22;55.92;95699.16;5141538;27;20221;-63
2022/01/26 00:58:29;;;;;;;58.93;37.67;;;;;;;-7.21;55.60;95705.97;5136861;27;20238;-64
2022/01/26 01:00:57;;;;;;;68.90;38.73;;;;;;;-7.38;55.72;95699.44;5137718;27;20235;-62
2022/01/26 01:03:23;;;;;;;62.53;38.13;;;;;;;-7.29;56.02;95698.44;5119521;28;20223;-64
2022/01/26 01:06:36;;;;;;;66.30;38.93;;;;;;;-7.25;55.66;95696.66;5121640;28;20222;-63
2022/01/26 01:08:39;;;;;;;66.97;38.83;;;;;;;-7.35;56.08;95686.63;5111790;28;20218;-62
2022/01/26 01:11:05;;;;;;;64.43;38.40;;;;;;;-7.42;56.25;95697.81;5134175;27;20206;-65
2022/01/26 01:13:36;;;;;;;57.87;37.97;;;;;;;-7.41;55.90;95686.72;5140188;27;20221;-64
2022/01/26 01:16:03;;;;;;;67.87;37.73;;;;;;;-7.47;56.31;95681.72;5141298;27;20229;-60
2022/01/26 01:29:19;;;;;;;62.80;36.47;;;;;;;-7.38;55.99;95694.31;5119169;27;20222;-62
2022/01/26 01:34:16;;;;;;;57.23;35.07;;;;;;;-7.38;56.08;95683.25;5123618;27;20299;-62
2022/01/26 01:36:45;;;;;;;56.00;35.67;;;;;;;-7.47;56.43;95689.38;5126254;27;20261;-61
2022/01/26 01:39:10;;;;;;;57.33;34.17;;;;;;;-7.36;56.22;95686.63;5142389;27;20206;-61
2022/01/26 01:41:39;;;;;;;57.07;35.33;;;;;;;-7.29;56.66;95683.13;5143051;28;20302;-61
2022/01/26 01:44:06;;;;;;;54.87;35.60;;;;;;;-7.36;56.73;95678.97;5141536;28;20242;-61
2022/01/26 01:46:32;;;;;;;56.10;34.00;;;;;;;-7.39;57.27;95674.75;5140140;27;20218;-62
2022/01/26 01:48:58;;;;;;;55.03;33.77;;;;;;;-7.22;57.03;95671.88;5140409;28;20261;-62
2022/01/26 01:51:38;;;;;;;52.90;33.10;;;;;;;-7.34;56.38;95667.03;5139230;28;20203;-62
2022/01/26 01:54:10;;;;;;;57.43;34.27;;;;;;;-7.37;56.85;95672.19;5140213;27;20235;-61
2022/01/26 01:56:38;;;;;;;53.10;33.87;;;;;;;-7.29;56.17;95665.22;5141163;27;20215;-61
2022/01/26 01:59:04;;;;;;;55.67;32.33;;;;;;;-7.39;56.65;95661.16;5141716;27;20237;-63
2022/01/26 02:01:29;;;;;;;53.83;32.00;;;;;;;-7.55;56.73;95655.47;5156769;27;20215;-61
2022/01/26 02:03:55;;;;;;;47.93;30.40;;;;;;;-7.59;56.90;95644.50;5138847;28;20230;-62
2022/01/26 02:06:22;;;;;;;51.67;30.87;;;;;;;-7.35;57.21;95645.75;5140246;28;20194;-61
2022/01/26 02:08:48;;;;;;;48.47;30.13;;;;;;;-7.34;56.77;95638.91;5138771;27;20241;-61
2022/01/26 02:11:14;;;;;;;52.60;33.10;;;;;;;-7.34;56.73;95639.75;5142280;27;20210;-62
2022/01/26 02:59:53;;;;;;;34.50;22.43;;;;;;;-6.81;56.27;95625.94;5142033;27;20227;-63
2022/01/26 03:04:51;;;;;;;36.13;22.93;;;;;;;-6.77;56.59;95630.09;5143480;27;20255;-63
2022/01/26 03:07:24;;;;;;;38.63;23.03;;;;;;;-6.69;56.47;95631.59;5142322;27;20256;-63
2022/01/26 03:10:00;;;;;;;35.30;23.13;;;;;;;-6.69;57.46;95634.16;5140128;27;20215;-64
2022/01/26 03:12:34;;;;;;;35.03;21.53;;;;;;;-6.64;57.73;95638.34;5145873;27;20265;-63
2022/01/26 03:15:10;;;;;;;36.80;22.67;;;;;;;-6.68;57.62;95640.13;5142991;27;20213;-61
2022/01/26 03:20:09;;;;;;;37.37;23.53;;;;;;;-6.48;56.82;95629.44;5142374;27;20267;-61
2022/01/26 03:35:56;;;;;;;44.67;25.70;;;;;;;-6.34;57.32;95624.00;5118974;28;20226;-61
2022/01/26 03:38:27;;;;;;;39.70;25.77;;;;;;;-6.39;57.44;95619.00;5116221;28;20237;-63
2022/01/26 03:41:22;;;;;;;46.37;28.20;;;;;;;-6.50;57.38;95620.97;5120302;28;20216;-63
2022/01/26 03:43:42;;;;;;;39.10;25.77;;;;;;;-6.53;58.16;95616.75;5121101;28;20282;-64
2022/01/26 03:46:08;;;;;;;37.90;22.93;;;;;;;-6.30;56.38;95615.41;5121413;28;20223;-61
2022/01/26 03:48:33;;;;;;;34.17;22.80;;;;;;;-6.23;56.12;95617.78;5119650;28;20211;-64
2022/01/26 03:51:00;;;;;;;30.43;20.43;;;;;;;-6.28;56.02;95619.59;5159590;27;20229;-62
2022/01/26 03:53:26;;;;;;;30.17;19.57;;;;;;;-6.14;56.03;95613.31;5141756;27;20222;-66
2022/01/26 03:55:51;;;;;;;26.20;18.27;;;;;;;-5.85;54.76;95613.41;5142538;27;20229;-64
2022/01/26 03:58:17;;;;;;;28.20;18.70;;;;;;;-5.89;54.92;95603.25;5142149;27;21157;-61
2022/01/26 04:00:43;;;;;;;30.10;19.63;;;;;;;-5.96;55.02;95602.63;5141818;27;20221;-62
2022/01/26 04:03:10;;;;;;;27.57;17.80;;;;;;;-5.83;55.72;95603.09;5142225;27;20295;-64
2022/01/26 04:05:36;;;;;;;27.97;17.90;;;;;;;-5.84;55.51;95599.69;5141307;27;20214;-66
2022/01/26 04:08:08;;;;;;;29.57;17.90;;;;;;;-5.67;54.51;95603.53;5139211;27;20214;-65
2022/01/26 04:13:18;;;;;;;18.07;11.97;;;;;;;-5.40;53.00;95595.13;5141482;27;20275;-62
2022/01/26 04:15:43;;;;;;;19.30;12.10;;;;;;;-5.33;52.25;95590.66;5138702;27;20199;-63
2022/01/26 04:18:13;;;;;;;15.47;10.63;;;;;;;-5.33;51.89;95591.50;5141456;27;20206;-64
2022/01/26 04:20:43;;;;;;;14.80;9.23;;;;;;;-5.12;51.69;95596.94;5142201;27;20233;-62
2022/01/26 04:23:15;;;;;;;15.60;10.53;;;;;;;-4.92;50.46;95589.50;5139700;27;20283;-63
2022/01/26 04:25:43;;;;;;;14.03;9.80;;;;;;;-4.87;50.25;95582.50;5140425;27;20230;-62
2022/01/26 04:28:14;;;;;;;12.60;9.33;;;;;;;-4.80;49.72;95578.03;5139425;27;20246;-63
2022/01/26 04:30:40;;;;;;;16.07;9.60;;;;;;;-4.78;49.58;95578.00;5140766;27;20221;-64
2022/01/26 04:33:06;;;;;;;12.60;8.37;;;;;;;-4.77;49.54;95582.22;5140922;27;20282;-63
2022/01/26 04:35:33;;;;;;;10.97;8.30;;;;;;;-4.72;50.25;95590.63;5142038;27;20270;-62
2022/01/26 04:40:35;;;;;;;14.63;8.77;;;;;;;-4.57;49.46;95579.06;5138378;27;20228;-61
2022/01/26 04:43:05;;;;;;;13.13;8.53;;;;;;;-4.57;48.97;95582.47;5135066;27;20260;-66
2022/01/26 04:45:31;;;;;;;12.30;8.53;;;;;;;-4.59;49.89;95581.69;5122708;27;20199;-62
2022/01/26 04:47:56;;;;;;;12.27;8.73;;;;;;;-4.47;49.12;95586.41;5126133;27;20199;-63
2022/01/26 04:50:22;;;;;;;13.30;8.83;;;;;;;-4.41;48.23;95593.13;5128955;27;20223;-63
2022/01/26 04:52:48;;;;;;;15.83;9.70;;;;;;;-4.51;48.90;95584.00;5124820;27;20223;-62
2022/01/26 04:55:14;;;;;;;12.90;9.33;;;;;;;-4.53;48.73;95590.91;5122888;27;20242;-64
2022/01/26 04:57:40;;;;;;;13.83;9.00;;;;;;;-4.59;49.19;95579.13;5123056;27;20210;-61
2022/01/26 05:00:09;;;;;;;13.27;8.73;;;;;;;-4.51;48.06;95589.97;5121036;28;20244;-62
2022/01/26 05:02:34;;;;;;;12.43;8.77;;;;;;;-4.59;49.12;95576.56;5122295;27;20232;-63
2022/01/26 05:05:00;;;;;;;12.50;8.07;;;;;;;-4.49;48.55;95582.22;5120968;27;20231;-62
2022/01/26 05:07:26;;;;;;;14.67;8.30;;;;;;;-4.46;48.61;95585.56;5119736;28;20294;-62
2022/01/26 05:09:51;;;;;;;12.13;8.33;;;;;;;-4.31;48.11;95591.91;5120654;27;20225;-62
2022/01/26 05:12:17;;;;;;;11.97;8.50;;;;;;;-4.37;48.13;95581.00;5122268;28;20207;-62
2022/01/26 05:14:45;;;;;;;10.37;7.77;;;;;;;-4.29;48.17;95586.75;5127839;27;20251;-62
2022/01/26 05:17:13;;;;;;;12.13;8.47;;;;;;;-4.30;48.05;95587.66;5121070;28;20211;-62
2022/01/26 05:19:38;;;;;;;11.27;8.77;;;;;;;-4.19;48.34;95589.88;5116792;28;20215;-66
2022/01/26 05:22:05;;;;;;;13.90;8.20;;;;;;;-4.27;48.44;95590.13;5122608;27;20253;-62
2022/01/26 05:24:30;;;;;;;13.53;8.93;;;;;;;-4.30;48.07;95585.91;5125832;28;20298;-62
2022/01/26 05:26:56;;;;;;;12.53;8.60;;;;;;;-4.16;47.88;95597.47;5118677;28;20215;-62
2022/01/26 05:29:22;;;;;;;11.33;8.37;;;;;;;-4.18;47.73;95586.41;5119499;28;20239;-63
2022/01/26 05:31:47;;;;;;;12.70;8.70;;;;;;;-4.27;48.68;95572.13;5118468;27;20238;-62
2022/01/26 05:34:13;;;;;;;13.37;10.00;;;;;;;-4.23;48.85;95573.69;5114815;28;20214;-62
2022/01/26 05:36:38;;;;;;;11.67;8.23;;;;;;;-4.18;48.33;95563.28;5116216;28;20203;-62
2022/01/26 05:39:04;;;;;;;14.40;9.27;;;;;;;-4.10;48.67;95569.00;5116415;28;20207;-62
2022/01/26 05:41:29;;;;;;;16.03;9.17;;;;;;;-4.11;49.08;95567.34;5145438;27;20227;-62
2022/01/26 05:43:55;;;;;;;13.70;10.00;;;;;;;-4.10;49.09;95567.28;5113808;28;20245;-64
2022/01/26 05:46:34;;;;;;;13.40;9.97;;;;;;;-4.11;49.26;95570.75;5115440;27;20234;-62
2022/01/26 05:49:00;;;;;;;14.00;9.00;;;;;;;-4.17;49.54;95563.25;5115934;28;20219;-62
2022/01/26 05:51:27;;;;;;;13.17;9.87;;;;;;;-4.13;49.96;95567.38;5150163;27;20225;-64
2022/01/26 05:53:52;;;;;;;15.57;10.20;;;;;;;-4.08;49.56;95569.81;5118334;28;20233;-62
2022/01/26 05:56:18;;;;;;;15.30;10.73;;;;;;;-4.06;50.24;95576.56;5121747;27;20208;-64
2022/01/26 05:58:43;;;;;;;13.47;9.93;;;;;;;-4.00;50.18;95572.97;5122139;27;20295;-62
2022/01/26 06:01:11;;;;;;;17.17;10.73;;;;;;;-4.03;50.91;95573.91;5124310;27;20226;-62
2022/01/26 06:03:37;;;;;;;15.50;9.47;;;;;;;-4.02;50.77;95578.13;5131855;27;20274;-62
2022/01/26 06:06:03;;;;;;;14.57;10.13;;;;;;;-3.98;50.89;95576.34;5142822;27;20205;-66
2022/01/26 06:08:29;;;;;;;15.20;10.13;;;;;;;-3.86;50.99;95572.50;5142535;27;20227;-63
2022/01/26 06:10:55;;;;;;;17.63;10.93;;;;;;;-3.92;51.46;95578.69;5142965;27;20263;-64
2022/01/26 06:13:21;;;;;;;15.77;10.63;;;;;;;-3.85;52.04;95574.16;5142450;27;20214;-64
2022/01/26 06:15:47;;;;;;;17.20;11.40;;;;;;;-3.81;51.35;95579.16;5143847;27;20215;-63
2022/01/26 06:18:13;;;;;;;13.97;10.70;;;;;;;-3.79;51.28;95574.81;5146044;27;20206;-63
2022/01/26 06:20:39;;;;;;;15.43;10.43;;;;;;;-3.83;51.46;95572.41;5141748;27;20225;-61
2022/01/26 06:23:05;;;;;;;16.67;11.53;;;;;;;-3.83;52.33;95570.66;5144996;27;20218;-63
2022/01/26 06:25:30;;;;;;;18.90;13.47;;;;;;;-3.76;52.38;95571.31;5139167;27;20234;-66
2022/01/26 06:27:59;;;;;;;17.10;12.23;;;;;;;-3.78;52.30;95565.38;5140334;27;20246;-63
2022/01/26 06:30:26;;;;;;;16.67;12.07;;;;;;;-3.71;52.73;95569.41;5140614;27;20198;-63
2022/01/26 06:32:53;;;;;;;17.80;11.83;;;;;;;-3.72;53.44;95577.16;5137875;27;20242;-65
2022/01/26 06:35:19;;;;;;;15.60;11.13;;;;;;;-3.75;53.68;95585.81;5140939;27;20222;-64
2022/01/26 06:37:45;;;;;;;16.07;11.63;;;;;;;-3.83;53.98;95562.94;5141086;27;20230;-66
2022/01/26 06:40:12;;;;;;;16.90;11.27;;;;;;;-3.63;53.62;95569.16;5141800;27;20223;-57
2022/01/26 06:42:51;;;;;;;16.37;11.90;;;;;;;-3.62;53.85;95571.66;5141892;27;20281;-66
2022/01/26 06:45:19;;;;;;;18.47;11.37;;;;;;;-3.49;54.28;95574.66;5141290;27;20226;-66
2022/01/26 06:50:28;;;;;;;18.27;11.23;;;;;;;-3.64;55.55;95567.47;5143286;27;20228;-64
2022/01/26 06:52:54;;;;;;;17.23;12.17;;;;;;;-3.55;55.75;95582.59;5143126;27;20238;-63
2022/01/26 06:55:20;;;;;;;17.57;13.17;;;;;;;-3.49;55.79;95573.81;5142207;27;20222;-63
2022/01/26 06:57:47;;;;;;;20.23;13.50;;;;;;;-3.56;56.19;95576.59;5141743;27;20221;-63
2022/01/26 07:00:13;;;;;;;22.00;13.87;;;;;;;-3.42;56.53;95588.97;5141207;27;20214;-63
2022/01/26 07:02:39;;;;;;;20.80;13.67;;;;;;;-3.46;56.66;95586.56;5142358;27;20218;-63
2022/01/26 07:05:10;;;;;;;21.07;13.80;;;;;;;-3.43;56.43;95582.13;5139568;27;20219;-63
2022/01/26 07:07:35;;;;;;;17.87;12.97;;;;;;;-3.33;56.53;95592.97;5155888;27;20294;-63
2022/01/26 07:10:02;;;;;;;21.33;13.97;;;;;;;-3.35;56.31;95574.16;5138508;27;20231;-62
2022/01/26 07:12:28;;;;;;;20.10;13.03;;;;;;;-3.35;57.10;95589.59;5119285;28;20207;-62
2022/01/26 07:22:59;;;;;;;20.73;13.60;;;;;;;-3.25;57.75;95574.69;5132688;27;20234;-62
2022/01/26 07:25:25;;;;;;;21.40;14.20;;;;;;;-3.26;57.91;95573.84;5136886;27;20231;-61
2022/01/26 07:27:51;;;;;;;19.20;12.87;;;;;;;-3.29;58.11;95579.06;5126949;27;20276;-62
2022/01/26 07:30:17;;;;;;;20.23;14.20;;;;;;;-3.24;58.19;95579.75;5141422;27;20298;-61
2022/01/26 07:32:43;;;;;;;19.53;12.77;;;;;;;-3.26;58.41;95571.28;5144326;27;20218;-61
2022/01/26 07:35:09;;;;;;;17.33;11.97;;;;;;;-3.24;58.31;95576.34;5140456;27;20224;-62
2022/01/26 07:37:34;;;;;;;19.93;12.43;;;;;;;-3.12;58.56;95579.31;5141928;27;20206;-62
2022/01/26 07:40:09;;;;;;;19.97;12.87;;;;;;;-3.16;58.54;95582.06;5142380;27;20218;-62
2022/01/26 07:42:36;;;;;;;18.57;12.63;;;;;;;-3.14;58.77;95588.81;5136827;27;20210;-62
2022/01/26 07:45:08;;;;;;;19.63;13.10;;;;;;;-3.11;58.79;95583.56;5139861;27;20203;-62
2022/01/26 07:47:34;;;;;;;18.33;12.20;;;;;;;-3.07;58.80;95588.59;5142366;27;20297;-62
2022/01/26 07:50:01;;;;;;;20.10;12.67;;;;;;;-3.03;58.43;95593.59;5143320;27;20268;-65
2022/01/26 07:52:29;;;;;;;19.33;12.63;;;;;;;-2.89;58.25;95593.06;5142007;27;20238;-61
2022/01/26 07:54:55;;;;;;;15.43;12.43;;;;;;;-3.01;59.20;95590.97;5141466;27;20218;-66
2022/01/26 07:57:21;;;;;;;20.07;12.87;;;;;;;-2.99;58.93;95586.59;5143252;27;20211;-66
2022/01/26 07:59:47;;;;;;;19.07;12.03;;;;;;;-3.07;59.38;95591.16;5139598;27;20219;-61
2022/01/26 08:02:13;;;;;;;18.63;12.10;;;;;;;-3.02;59.62;95584.13;5142361;27;20237;-62
2022/01/26 08:04:38;;;;;;;18.80;11.60;;;;;;;-2.90;59.34;95586.25;5141912;27;20309;-60
2022/01/26 08:07:04;;;;;;;17.60;12.33;;;;;;;-2.89;59.32;95582.78;5140345;27;20226;-62
2022/01/26 08:09:29;;;;;;;17.40;12.00;;;;;;;-2.80;59.25;95587.59;5141169;27;20203;-62
2022/01/26 08:11:55;;;;;;;19.67;12.20;;;;;;;-2.73;59.38;95586.44;5141049;27;20215;-65
2022/01/26 08:14:21;;;;;;;16.40;12.90;;;;;;;-2.77;59.37;95590.06;5140090;27;20210;-61
2022/01/26 08:16:46;;;;;;;16.43;12.47;;;;;;;-2.86;60.35;95603.28;5140204;27;20210;-62
2022/01/26 08:19:13;;;;;;;17.17;11.03;;;;;;;-2.98;61.10;95591.69;5142988;27;20253;-64
2022/01/26 08:21:39;;;;;;;17.57;11.83;;;;;;;-2.83;61.17;95587.72;5140518;27;20208;-63
2022/01/26 08:24:12;;;;;;;15.97;11.00;;;;;;;-2.76;61.06;95580.59;5140696;27;20203;-62
2022/01/26 08:26:48;;;;;;;15.17;10.97;;;;;;;-2.70;61.21;95583.78;5140271;27;20238;-64
2022/01/26 08:29:39;;;;;;;14.87;11.47;;;;;;;-2.61;60.70;95577.44;5136163;27;20229;-62
2022/01/26 08:32:03;;;;;;;15.77;11.60;;;;;;;-2.64;61.17;95579.31;5140368;27;20217;-62
2022/01/26 08:34:28;;;;;;;15.33;11.33;;;;;;;-2.51;61.03;95577.94;5142733;27;20234;-62
2022/01/26 08:36:54;;;;;;;16.07;11.63;;;;;;;-2.55;61.24;95576.38;5139809;27;21261;-62
2022/01/26 08:39:19;;;;;;;17.43;12.10;;;;;;;-2.55;61.42;95571.22;5141797;27;20209;-63
2022/01/26 08:41:45;;;;;;;19.40;12.60;;;;;;;-2.44;60.85;95569.88;5142668;27;20207;-65
2022/01/26 08:44:10;;;;;;;17.97;12.27;;;;;;;-2.41;61.13;95584.38;5140067;27;20278;-61
2022/01/26 08:46:36;;;;;;;16.93;12.20;;;;;;;-2.40;60.98;95578.34;5137820;27;20225;-62
2022/01/26 08:49:04;;;;;;;15.70;11.90;;;;;;;-2.48;61.42;95582.97;5142640;27;20249;-64
2022/01/26 08:51:29;;;;;;;16.37;12.17;;;;;;;-2.36;61.50;95592.78;5139813;27;20255;-63
2022/01/26 08:53:55;;;;;;;16.53;11.53;;;;;;;-2.34;61.46;95585.84;5138966;27;20234;-61
2022/01/26 08:56:21;;;;;;;15.03;11.50;;;;;;;-2.23;61.68;95583.66;5134768;27;20233;-63
2022/01/26 08:58:46;;;;;;;17.60;12.17;;;;;;;-2.17;60.68;95581.75;5139433;27;20230;-63
2022/01/26 09:01:12;;;;;;;15.03;11.50;;;;;;;-2.15;60.83;95587.69;5156318;27;20226;-61
2022/01/26 09:03:41;;;;;;;13.37;10.73;;;;;;;-2.26;61.30;95588.94;5140219;27;20230;-62
2022/01/26 09:06:07;;;;;;;13.73;10.23;;;;;;;-2.20;61.62;95590.44;5141117;27;20198;-62
2022/01/26 09:08:34;;;;;;;14.93;11.70;;;;;;;-2.14;61.01;95586.78;5138463;27;20241;-62
2022/01/26 09:11:02;;;;;;;14.50;9.97;;;;;;;-2.04;60.97;95590.66;5139080;27;20219;-63
2022/01/26 09:13:34;;;;;;;11.87;9.67;;;;;;;-2.20;61.27;95589.59;5140080;27;20242;-62
2022/01/26 09:16:03;;;;;;;13.77;10.67;;;;;;;-2.07;61.41;95603.69;5132819;27;20226;-61
2022/01/26 09:18:40;;;;;;;13.10;10.13;;;;;;;-1.93;60.55;95598.78;5137824;27;20195;-61
2022/01/26 09:21:06;;;;;;;13.00;9.70;;;;;;;-2.02;60.89;95594.03;5120349;28;20293;-64
2022/01/26 09:23:32;;;;;;;13.57;10.10;;;;;;;-1.86;60.81;95607.97;5116759;28;20226;-61
2022/01/26 09:25:58;;;;;;;14.07;10.13;;;;;;;-2.10;61.27;95599.47;5118206;28;20234;-62
2022/01/26 09:28:25;;;;;;;10.30;9.17;;;;;;;-2.10;61.60;95603.81;5123621;28;20219;-63
2022/01/26 09:30:51;;;;;;;15.60;11.20;;;;;;;-2.13;61.58;95591.88;5119933;28;20211;-61
2022/01/26 09:33:17;;;;;;;14.53;10.43;;;;;;;-1.99;61.37;95593.91;5150625;27;20204;-62
2022/01/26 09:35:44;;;;;;;15.93;11.03;;;;;;;-1.92;61.63;95587.59;5117953;27;20226;-62
2022/01/26 09:38:10;;;;;;;14.57;9.63;;;;;;;-1.85;60.96;95596.75;5118040;28;20216;-63
2022/01/26 09:40:36;;;;;;;11.90;9.43;;;;;;;-1.79;60.67;95593.09;5118925;28;20267;-62
2022/01/26 09:43:01;;;;;;;13.90;10.10;;;;;;;-1.82;60.71;95577.72;5118678;28;20241;-63
2022/01/26 09:45:29;;;;;;;13.43;9.70;;;;;;;-1.81;60.47;95588.00;5117753;28;20211;-62
2022/01/26 09:47:54;;;;;;;13.53;10.80;;;;;;;-1.79;60.31;95577.63;5117867;28;20234;-61
2022/01/26 09:50:20;;;;;;;13.60;9.83;;;;;;;-1.73;60.73;95586.84;5119079;28;20246;-64
2022/01/26 09:52:48;;;;;;;17.10;10.47;;;;;;;-1.63;60.05;95580.38;5117406;28;20279;-62
2022/01/26 09:55:15;;;;;;;11.50;8.63;;;;;;;-1.62;59.77;95579.50;5116308;28;20236;-63
2022/01/26 09:57:43;;;;;;;10.67;8.33;;;;;;;-1.58;60.28;95573.28;5119937;27;20226;-62
2022/01/26 10:00:09;;;;;;;10.87;9.17;;;;;;;-1.64;60.19;95563.25;5120484;28;20206;-62
2022/01/26 10:02:35;;;;;;;11.00;8.63;;;;;;;-1.44;59.32;95565.00;5120167;28;20222;-63
2022/01/26 10:05:04;;;;;;;11.33;9.93;;;;;;;-1.52;59.88;95555.00;5132581;27;20239;-64
2022/01/26 10:10:28;;;;;;;13.77;9.33;;;;;;;-1.53;59.98;95560.22;5128862;27;20230;-62
2022/01/26 10:15:58;;;;;;;11.90;9.10;;;;;;;-1.50;60.20;95563.50;5120935;27;20236;-64
2022/01/26 10:18:23;;;;;;;12.80;9.73;;;;;;;-1.49;60.58;95559.19;5119270;28;20257;-63
2022/01/26 10:20:52;;;;;;;13.03;9.40;;;;;;;-1.33;60.52;95561.03;5117175;28;20223;-62
2022/01/26 10:23:30;;;;;;;14.87;11.17;;;;;;;-1.19;59.82;95565.59;5119746;28;20282;-61
2022/01/26 10:26:04;;;;;;;12.90;10.63;;;;;;;-1.37;59.95;95562.06;5124465;28;20226;-63
2022/01/26 10:28:51;;;;;;;11.80;9.50;;;;;;;-1.34;60.08;95551.63;5128686;28;20252;-62
2022/01/26 10:31:21;;;;;;;13.33;9.80;;;;;;;-1.36;60.35;95550.03;5124951;27;20219;-63
2022/01/26 10:33:57;;;;;;;12.47;9.13;;;;;;;-1.37;60.94;95550.91;5132068;27;20204;-64
2022/01/26 10:36:23;;;;;;;11.50;8.97;;;;;;;-1.40;60.91;95551.88;5127322;27;20203;-62
2022/01/26 10:39:00;;;;;;;11.47;10.00;;;;;;;-1.48;61.41;95556.53;5122079;27;20234;-62
2022/01/26 10:41:26;;;;;;;13.53;10.03;;;;;;;-1.29;60.98;95548.81;5138161;27;20211;-61
2022/01/26 10:43:54;;;;;;;12.60;10.07;;;;;;;-1.27;60.99;95544.44;5135004;27;20230;-62
2022/01/26 10:46:36;;;;;;;15.10;9.77;;;;;;;-1.25;61.08;95547.81;5124991;27;20230;-62
2022/01/26 10:52:18;;;;;;;11.50;9.67;;;;;;;-1.36;62.03;95550.84;5041239;28;20232;-62
2022/01/26 10:54:45;;;;;;;12.03;9.23;;;;;;;-1.21;62.11;95553.66;5042599;28;20240;-62
2022/01/26 10:57:12;;;;;;;12.07;9.37;;;;;;;-1.39;62.45;95544.97;5050116;28;20292;-62
2022/01/26 10:59:43;;;;;;;12.53;9.87;;;;;;;-1.45;62.94;95551.22;5040587;28;20218;-61
2022/01/26 11:02:11;;;;;;;15.30;11.20;;;;;;;-1.43;62.95;95552.00;5025543;28;20234;-61
2022/01/26 11:04:41;;;;;;;15.10;11.00;;;;;;;-1.53;63.47;95549.91;5050392;28;20229;-63
2022/01/26 11:07:11;;;;;;;13.43;10.20;;;;;;;-1.56;63.78;95545.72;5043703;28;20229;-63
2022/01/26 11:09:40;;;;;;;14.10;11.30;;;;;;;-1.45;63.61;95533.19;5058513;28;20209;-63
2022/01/26 11:12:08;;;;;;;13.73;10.33;;;;;;;-1.27;63.52;95541.03;5061631;28;20212;-62
2022/01/26 11:14:49;;;;;;;12.80;9.90;;;;;;;-1.33;63.34;95535.25;5059909;28;20225;-66
2022/01/26 11:17:34;;;;;;;14.80;10.50;;;;;;;-1.17;63.70;95535.41;5045147;28;20232;-62
2022/01/26 11:20:13;;;;;;;15.83;11.20;;;;;;;-1.25;63.26;95534.91;5060617;28;20221;-64
2022/01/26 11:22:52;;;;;;;11.97;9.70;;;;;;;-1.23;63.24;95533.09;5059663;28;20240;-63
2022/01/26 11:25:18;;;;;;;16.23;10.23;;;;;;;-1.11;63.35;95531.69;5053955;28;20225;-62
2022/01/26 11:27:44;;;;;;;12.83;10.30;;;;;;;-1.02;62.92;95526.13;5105776;27;20265;-62
2022/01/26 11:30:25;;;;;;;13.00;10.53;;;;;;;-0.97;63.15;95529.31;5143272;27;20215;-63
2022/01/26 11:32:57;;;;;;;15.33;10.23;;;;;;;-0.97;62.63;95531.91;5143730;27;20278;-62
2022/01/26 11:35:24;;;;;;;12.23;9.37;;;;;;;-1.00;63.15;95531.22;5140601;27;20214;-62
2022/01/26 11:38:18;;;;;;;14.27;9.67;;;;;;;-0.94;63.05;95529.19;5139772;27;20218;-64
2022/01/26 11:46:32;;;;;;;10.90;8.87;;;;;;;-1.02;63.86;95520.13;5141014;27;20228;-62
2022/01/26 11:49:10;;;;;;;11.63;8.93;;;;;;;-0.98;63.13;95514.75;5141576;27;20218;-60
2022/01/26 11:51:48;;;;;;;12.47;8.97;;;;;;;-0.97;63.22;95519.00;5142131;27;20198;-63
2022/01/26 11:54:19;;;;;;;12.00;8.70;;;;;;;-0.95;63.22;95522.34;5139668;27;20199;-63
2022/01/26 11:57:01;;;;;;;13.60;8.83;;;;;;;-0.87;63.21;95516.03;5140681;27;20244;-65
2022/01/26 11:59:30;;;;;;;11.37;9.40;;;;;;;-0.97;63.31;95519.00;5156854;27;20252;-62
2022/01/26 12:02:18;;;;;;;9.67;8.67;;;;;;;-0.98;63.20;95519.91;5142162;27;20214;-63
2022/01/26 12:04:44;;;;;;;11.00;8.93;;;;;;;-0.99;63.75;95513.09;5140982;27;20297;-63
2022/01/26 12:07:21;;;;;;;13.27;10.13;;;;;;;-0.88;63.66;95512.59;5142490;27;20227;-62
2022/01/26 12:09:47;;;;;;;12.80;9.73;;;;;;;-0.78;63.37;95523.31;5138420;27;20293;-63
2022/01/26 12:12:18;;;;;;;9.57;8.33;;;;;;;-0.93;63.99;95512.81;5140970;27;20222;-62
2022/01/26 12:14:55;;;;;;;12.33;9.60;;;;;;;-0.81;64.25;95520.88;5139842;27;20237;-62
2022/01/26 12:17:29;;;;;;;12.47;9.57;;;;;;;-0.79;63.88;95514.75;5141276;27;20233;-64
2022/01/26 12:20:12;;;;;;;10.90;9.50;;;;;;;-0.68;63.95;95516.84;5138463;27;20219;-63
2022/01/26 12:34:22;;;;;;;13.57;10.73;;;;;;;-0.88;65.17;95507.44;5140650;27;20213;-64
2022/01/26 12:42:25;;;;;;;13.57;10.67;;;;;;;-0.96;65.74;95499.22;5116956;28;20271;-62
2022/01/26 12:45:01;;;;;;;15.60;12.53;;;;;;;-0.80;65.29;95499.31;5122009;27;20222;-63
2022/01/26 12:47:28;;;;;;;16.47;12.33;;;;;;;-0.77;65.37;95486.28;5127146;27;20219;-63
2022/01/26 12:49:55;;;;;;;14.70;11.63;;;;;;;-0.82;65.09;95498.56;5126538;27;20239;-62
2022/01/26 12:52:22;;;;;;;14.33;11.23;;;;;;;-0.77;65.39;95492.28;5137409;27;20215;-62
2022/01/26 12:54:48;;;;;;;13.80;10.70;;;;;;;-0.89;65.58;95498.84;5140020;27;20218;-61
2022/01/26 12:57:13;;;;;;;13.67;11.23;;;;;;;-0.91;65.54;95495.50;5139837;27;20202;-61
2022/01/26 12:59:39;;;;;;;14.20;11.97;;;;;;;-0.74;64.77;95496.47;5136806;27;20239;-62
2022/01/26 13:02:05;;;;;;;13.50;11.47;;;;;;;-0.80;64.88;95488.97;5119368;28;20222;-62
2022/01/26 13:04:31;;;;;;;14.93;11.60;;;;;;;-0.67;64.36;95487.50;5120988;27;20235;-62
2022/01/26 13:06:56;;;;;;;14.80;11.50;;;;;;;-0.72;64.57;95481.75;5117902;28;20226;-62
2022/01/26 13:09:26;;;;;;;16.17;11.83;;;;;;;-0.65;64.56;95479.69;5121311;28;20204;-62
2022/01/26 13:11:55;;;;;;;13.70;11.07;;;;;;;-0.59;64.49;95477.63;5116873;28;20211;-65
2022/01/26 13:14:36;;;;;;;17.97;12.63;;;;;;;-0.39;63.64;95479.28;5119816;28;20242;-63
2022/01/26 13:17:13;;;;;;;15.37;11.10;;;;;;;-0.43;63.68;95477.75;5123376;27;20222;-65
2022/01/26 13:19:59;;;;;;;15.97;11.63;;;;;;;-0.53;63.95;95473.97;5121632;27;20222;-62
2022/01/26 13:27:48;;;;;;;13.93;11.23;;;;;;;-0.67;64.11;95466.84;5139400;27;20217;-62
2022/01/26 13:36:58;;;;;;;9.63;8.63;;;;;;;-1.03;64.78;95478.00;5012864;28;20238;-62
2022/01/26 13:39:52;;;;;;;11.07;9.47;;;;;;;-1.00;65.21;95477.84;4998780;28;20290;-62
2022/01/26 13:55:18;;;;;;;10.50;8.30;;;;;;;-0.78;64.25;95484.59;5010768;28;20269;-62
2022/01/26 14:00:22;;;;;;;11.43;8.50;;;;;;;-0.59;63.65;95487.97;5013231;28;20217;-63
2022/01/26 14:02:53;;;;;;;10.73;8.40;;;;;;;-0.61;63.66;95500.16;5005036;28;20231;-62
2022/01/26 14:05:19;;;;;;;9.80;8.77;;;;;;;-0.68;63.97;95486.66;5008528;28;20236;-62
2022/01/26 14:07:44;;;;;;;11.60;9.70;;;;;;;-0.69;64.21;95513.41;5033703;28;20229;-61
2022/01/26 14:10:10;;;;;;;12.17;9.50;;;;;;;-0.64;64.22;95500.31;5091878;27;20226;-64
2022/01/26 14:12:40;;;;;;;10.50;8.53;;;;;;;-0.64;64.09;95505.47;5141643;27;20199;-63
2022/01/26 14:15:08;;;;;;;13.00;10.30;;;;;;;-0.64;63.96;95502.88;5146613;27;20205;-62
2022/01/26 14:25:29;;;;;;;11.67;9.57;;;;;;;-0.55;63.98;95515.34;5083060;28;20288;-63
2022/01/26 14:28:00;;;;;;;11.17;8.97;;;;;;;-0.61;64.10;95512.22;5063741;28;20254;-62